createdAt,value
2018-12-13T00:00:00.059Z,1020.60
2018-12-13T00:01:00.033Z,1020.55
2018-12-13T00:02:00.023Z,1020.60
2018-12-13T00:03:00.012Z,1020.57
2018-12-13T00:04:00.001Z,1020.56
2018-12-13T00:05:00.008Z,1020.53
2018-12-13T00:05:59.981Z,1020.52
2018-12-13T00:06:59.967Z,1020.54
2018-12-13T00:07:59.956Z,1020.54
2018-12-13T00:08:59.944Z,1020.54
2018-12-13T00:09:59.948Z,1020.53
2018-12-13T00:10:59.921Z,1020.47
2018-12-13T00:11:59.911Z,1020.53
2018-12-13T00:12:59.902Z,1020.51
2018-12-13T00:13:59.890Z,1020.50
2018-12-13T00:14:59.908Z,1020.49
2018-12-13T00:15:59.867Z,1020.49
2018-12-13T00:16:59.855Z,1020.48
2018-12-13T00:17:59.844Z,1020.52
2018-12-13T00:18:59.833Z,1020.48
2018-12-13T00:19:59.821Z,1020.49
2018-12-13T00:20:59.820Z,1020.49
2018-12-13T00:21:59.799Z,1020.50
2018-12-13T00:22:59.787Z,1020.52
2018-12-13T00:23:59.776Z,1020.53
2018-12-13T00:24:59.765Z,1020.48
2018-12-13T00:25:59.766Z,1020.48
2018-12-13T00:26:59.744Z,1020.50
2018-12-13T00:27:59.734Z,1020.46
2018-12-13T00:28:59.721Z,1020.52
2018-12-13T00:29:59.714Z,1020.50
2018-12-13T00:30:59.712Z,1020.46
2018-12-13T00:31:59.688Z,1020.45
2018-12-13T00:32:59.677Z,1020.51
2018-12-13T00:33:59.666Z,1020.46
2018-12-13T00:34:59.656Z,1020.50
2018-12-13T00:35:59.657Z,1020.48
2018-12-13T00:36:59.633Z,1020.47
2018-12-13T00:37:59.621Z,1020.50
2018-12-13T00:38:59.613Z,1020.48
2018-12-13T00:39:59.599Z,1020.48
2018-12-13T00:40:59.600Z,1020.50
2018-12-13T00:41:59.579Z,1020.52
2018-12-13T00:42:59.566Z,1020.53
2018-12-13T00:43:59.557Z,1020.49
2018-12-13T00:44:59.543Z,1020.48
2018-12-13T00:45:59.546Z,1020.47
2018-12-13T00:46:59.524Z,1020.49
2018-12-13T00:47:59.510Z,1020.47
2018-12-13T00:48:59.498Z,1020.47
2018-12-13T00:49:59.487Z,1020.47
2018-12-13T00:50:59.519Z,1020.50
2018-12-13T00:51:59.465Z,1020.49
2018-12-13T00:52:59.455Z,1020.49
2018-12-13T00:53:59.443Z,1020.50
2018-12-13T00:54:59.432Z,1020.50
2018-12-13T00:55:59.421Z,1020.48
2018-12-13T00:56:59.422Z,1020.48
2018-12-13T00:57:59.399Z,1020.49
2018-12-13T00:58:59.388Z,1020.46
2018-12-13T00:59:59.378Z,1020.52
2018-12-13T01:00:59.366Z,1020.43
2018-12-13T01:01:59.369Z,1020.47
2018-12-13T01:02:59.343Z,1020.46
2018-12-13T01:03:59.331Z,1020.43
2018-12-13T01:04:59.324Z,1020.48
2018-12-13T01:05:59.310Z,1020.49
2018-12-13T01:06:59.309Z,1020.47
2018-12-13T01:07:59.289Z,1020.45
2018-12-13T01:08:59.277Z,1020.44
2018-12-13T01:09:59.267Z,1020.47
2018-12-13T01:10:59.258Z,1020.46
2018-12-13T01:11:59.255Z,1020.51
2018-12-13T01:12:59.233Z,1020.50
2018-12-13T01:13:59.221Z,1020.56
2018-12-13T01:14:59.214Z,1020.52
2018-12-13T01:15:59.198Z,1020.52
2018-12-13T01:16:59.199Z,1020.54
2018-12-13T01:17:59.176Z,1020.56
2018-12-13T01:18:59.165Z,1020.57
2018-12-13T01:19:59.153Z,1020.49
2018-12-13T01:20:59.141Z,1020.48
2018-12-13T01:21:59.141Z,1020.48
2018-12-13T01:22:59.120Z,1020.48
2018-12-13T01:23:59.115Z,1020.44
2018-12-13T01:24:59.098Z,1020.42
2018-12-13T01:25:59.087Z,1020.41
2018-12-13T01:26:59.087Z,1020.39
2018-12-13T01:27:59.063Z,1020.37
2018-12-13T01:28:59.053Z,1020.40
2018-12-13T01:29:59.042Z,1020.41
2018-12-13T01:30:59.031Z,1020.36
2018-12-13T01:31:59.056Z,1020.39
2018-12-13T01:32:59.011Z,1020.40
2018-12-13T01:33:58.997Z,1020.39
2018-12-13T01:34:58.985Z,1020.41
2018-12-13T01:35:58.975Z,1020.43
2018-12-13T01:36:58.966Z,1020.38
2018-12-13T01:37:58.964Z,1020.33
2018-12-13T01:38:58.943Z,1020.36
2018-12-13T01:39:58.931Z,1020.34
2018-12-13T01:40:58.922Z,1020.36
2018-12-13T01:41:58.909Z,1020.35
2018-12-13T01:42:58.910Z,1020.34
2018-12-13T01:43:58.888Z,1020.30
2018-12-13T01:44:58.875Z,1020.31
2018-12-13T01:45:58.864Z,1020.31
2018-12-13T01:46:58.856Z,1020.30
2018-12-13T01:47:58.855Z,1020.30
2018-12-13T01:48:58.831Z,1020.31
2018-12-13T01:49:58.823Z,1020.30
2018-12-13T01:50:58.808Z,1020.28
2018-12-13T01:51:58.797Z,1020.27
2018-12-13T01:52:58.800Z,1020.24
2018-12-13T01:53:58.778Z,1020.27
2018-12-13T01:54:58.766Z,1020.24
2018-12-13T01:55:58.753Z,1020.24
2018-12-13T01:56:58.743Z,1020.25
2018-12-13T01:57:58.742Z,1020.27
2018-12-13T01:58:58.721Z,1020.24
2018-12-13T01:59:58.708Z,1020.23
2018-12-13T02:00:58.697Z,1020.23
2018-12-13T02:01:58.687Z,1020.24
2018-12-13T02:02:58.686Z,1020.26
2018-12-13T02:03:58.663Z,1020.27
2018-12-13T02:04:58.653Z,1020.29
2018-12-13T02:05:58.641Z,1020.28
2018-12-13T02:06:58.972Z,1020.23
2018-12-13T02:07:58.630Z,1020.23
2018-12-13T02:08:58.609Z,1020.26
2018-12-13T02:09:58.598Z,1020.25
2018-12-13T02:10:58.588Z,1020.22
2018-12-13T02:11:58.577Z,1020.21
2018-12-13T02:12:58.574Z,1020.19
2018-12-13T02:13:58.551Z,1020.20
2018-12-13T02:14:58.541Z,1020.18
2018-12-13T02:15:58.529Z,1020.21
2018-12-13T02:16:58.519Z,1020.21
2018-12-13T02:17:58.536Z,1020.17
2018-12-13T02:18:58.495Z,1020.17
2018-12-13T02:19:58.489Z,1020.19
2018-12-13T02:20:58.474Z,1020.18
2018-12-13T02:21:58.464Z,1020.17
2018-12-13T02:22:58.453Z,1020.15
2018-12-13T02:23:58.454Z,1020.11
2018-12-13T02:24:58.429Z,1020.15
2018-12-13T02:25:58.418Z,1020.16
2018-12-13T02:26:58.410Z,1020.14
2018-12-13T02:27:58.410Z,1020.13
2018-12-13T02:28:58.398Z,1020.10
2018-12-13T02:29:58.377Z,1020.10
2018-12-13T02:30:58.365Z,1020.09
2018-12-13T02:31:58.354Z,1020.13
2018-12-13T02:32:58.341Z,1020.08
2018-12-13T02:33:58.343Z,1020.10
2018-12-13T02:34:58.319Z,1020.08
2018-12-13T02:35:58.317Z,1020.03
2018-12-13T02:36:58.296Z,1020.06
2018-12-13T02:37:58.284Z,1020.07
2018-12-13T02:38:58.286Z,1020.02
2018-12-13T02:39:58.262Z,1020.09
2018-12-13T02:40:58.252Z,1020.04
2018-12-13T02:41:58.240Z,1020.05
2018-12-13T02:42:58.291Z,1020.04
2018-12-13T02:43:58.230Z,1020.12
2018-12-13T02:44:58.211Z,1020.05
2018-12-13T02:45:58.195Z,1020.04
2018-12-13T02:46:58.186Z,1020.09
2018-12-13T02:47:58.177Z,1020.07
2018-12-13T02:48:58.177Z,1020.06
2018-12-13T02:49:58.152Z,1020.08
2018-12-13T02:50:58.143Z,1020.06
2018-12-13T02:51:58.130Z,1020.14
2018-12-13T02:52:58.120Z,1020.13
2018-12-13T02:53:58.119Z,1020.15
2018-12-13T02:54:58.098Z,1020.15
2018-12-13T02:55:58.084Z,1020.15
2018-12-13T02:56:58.074Z,1020.10
2018-12-13T02:57:58.063Z,1020.11
2018-12-13T02:58:58.083Z,1020.15
2018-12-13T02:59:58.040Z,1020.13
2018-12-13T03:00:58.031Z,1020.13
2018-12-13T03:01:58.022Z,1020.08
2018-12-13T03:02:58.014Z,1020.04
2018-12-13T03:03:58.000Z,1020.06
2018-12-13T03:04:57.997Z,1020.06
2018-12-13T03:05:57.978Z,1020.08
2018-12-13T03:06:57.969Z,1020.09
2018-12-13T03:07:57.956Z,1020.08
2018-12-13T03:08:57.950Z,1020.05
2018-12-13T03:09:57.943Z,1020.02
2018-12-13T03:10:57.925Z,1019.99
2018-12-13T03:11:57.908Z,1020.01
2018-12-13T03:12:57.898Z,1019.99
2018-12-13T03:13:57.892Z,1019.96
2018-12-13T03:14:57.888Z,1019.96
2018-12-13T03:15:57.864Z,1019.97
2018-12-13T03:16:57.856Z,1019.96
2018-12-13T03:17:57.842Z,1020.02
2018-12-13T03:18:57.831Z,1019.92
2018-12-13T03:19:57.833Z,1019.97
2018-12-13T03:20:57.808Z,1019.94
2018-12-13T03:21:57.802Z,1019.94
2018-12-13T03:22:57.786Z,1019.96
2018-12-13T03:23:57.776Z,1019.91
2018-12-13T03:24:57.775Z,1019.91
2018-12-13T03:25:57.755Z,1019.88
2018-12-13T03:26:57.741Z,1019.94
2018-12-13T03:27:58.271Z,1019.85
2018-12-13T03:28:57.720Z,1019.89
2018-12-13T03:29:57.749Z,1019.87
2018-12-13T03:30:57.700Z,1019.88
2018-12-13T03:31:57.688Z,1019.84
2018-12-13T03:32:57.679Z,1019.92
2018-12-13T03:33:57.666Z,1019.92
2018-12-13T03:34:57.652Z,1019.93
2018-12-13T03:35:57.655Z,1019.89
2018-12-13T03:36:57.632Z,1019.89
2018-12-13T03:37:57.622Z,1019.88
2018-12-13T03:38:57.609Z,1019.89
2018-12-13T03:39:57.598Z,1019.86
2018-12-13T03:40:57.597Z,1019.83
2018-12-13T03:41:57.575Z,1019.82
2018-12-13T03:42:57.566Z,1019.82
2018-12-13T03:43:57.553Z,1019.77
2018-12-13T03:44:57.541Z,1019.78
2018-12-13T03:45:57.541Z,1019.76
2018-12-13T03:46:57.519Z,1019.78
2018-12-13T03:47:57.509Z,1019.77
2018-12-13T03:48:57.498Z,1019.72
2018-12-13T03:49:57.487Z,1019.76
2018-12-13T03:50:57.487Z,1019.74
2018-12-13T03:51:57.464Z,1019.72
2018-12-13T03:52:57.453Z,1019.72
2018-12-13T03:53:57.442Z,1019.71
2018-12-13T03:54:57.431Z,1019.69
2018-12-13T03:55:57.431Z,1019.73
2018-12-13T03:56:57.411Z,1019.72
2018-12-13T03:57:57.396Z,1019.66
2018-12-13T03:58:57.386Z,1019.71
2018-12-13T03:59:57.374Z,1019.76
2018-12-13T04:00:57.375Z,1019.76
2018-12-13T04:01:57.352Z,1019.76
2018-12-13T04:02:57.345Z,1019.82
2018-12-13T04:03:57.330Z,1019.77
2018-12-13T04:04:57.319Z,1019.78
2018-12-13T04:05:57.350Z,1019.80
2018-12-13T04:06:57.299Z,1019.75
2018-12-13T04:07:57.287Z,1019.78
2018-12-13T04:08:57.277Z,1019.76
2018-12-13T04:09:57.264Z,1019.79
2018-12-13T04:10:57.253Z,1019.75
2018-12-13T04:11:57.252Z,1019.72
2018-12-13T04:12:57.231Z,1019.75
2018-12-13T04:13:57.220Z,1019.73
2018-12-13T04:14:57.207Z,1019.73
2018-12-13T04:15:57.197Z,1019.74
2018-12-13T04:16:57.198Z,1019.71
2018-12-13T04:17:57.174Z,1019.71
2018-12-13T04:18:57.163Z,1019.65
2018-12-13T04:19:57.155Z,1019.65
2018-12-13T04:20:57.141Z,1019.66
2018-12-13T04:21:57.140Z,1019.68
2018-12-13T04:22:57.119Z,1019.68
2018-12-13T04:23:57.109Z,1019.67
2018-12-13T04:24:57.096Z,1019.62
2018-12-13T04:25:57.087Z,1019.64
2018-12-13T04:26:57.089Z,1019.66
2018-12-13T04:27:57.063Z,1019.64
2018-12-13T04:28:57.215Z,1019.62
2018-12-13T04:29:57.042Z,1019.66
2018-12-13T04:30:57.032Z,1019.64
2018-12-13T04:31:57.032Z,1019.63
2018-12-13T04:32:57.007Z,1019.56
2018-12-13T04:33:56.995Z,1019.59
2018-12-13T04:34:56.984Z,1019.55
2018-12-13T04:35:56.974Z,1019.55
2018-12-13T04:36:56.990Z,1019.53
2018-12-13T04:37:56.952Z,1019.53
2018-12-13T04:38:56.939Z,1019.57
2018-12-13T04:39:56.929Z,1019.61
2018-12-13T04:40:56.916Z,1019.63
2018-12-13T04:41:56.910Z,1019.65
2018-12-13T04:42:56.906Z,1019.63
2018-12-13T04:43:56.884Z,1019.67
2018-12-13T04:44:56.876Z,1019.63
2018-12-13T04:45:56.861Z,1019.66
2018-12-13T04:46:56.852Z,1019.68
2018-12-13T04:47:56.850Z,1019.66
2018-12-13T04:48:56.831Z,1019.62
2018-12-13T04:49:56.817Z,1019.54
2018-12-13T04:50:56.806Z,1019.53
2018-12-13T04:51:56.795Z,1019.62
2018-12-13T04:52:56.797Z,1019.60
2018-12-13T04:53:56.772Z,1019.72
2018-12-13T04:54:56.760Z,1019.66
2018-12-13T04:55:56.751Z,1019.62
2018-12-13T04:56:56.739Z,1019.57
2018-12-13T04:57:56.738Z,1019.56
2018-12-13T04:58:56.718Z,1019.49
2018-12-13T04:59:56.705Z,1019.52
2018-12-13T05:00:56.696Z,1019.55
2018-12-13T05:01:56.687Z,1019.62
2018-12-13T05:02:56.685Z,1019.56
2018-12-13T05:03:56.669Z,1019.50
2018-12-13T05:04:56.649Z,1019.50
2018-12-13T05:05:56.637Z,1019.50
2018-12-13T05:06:56.628Z,1019.49
2018-12-13T05:07:56.628Z,1019.51
2018-12-13T05:08:56.605Z,1019.52
2018-12-13T05:09:56.594Z,1019.49
2018-12-13T05:10:56.583Z,1019.50
2018-12-13T05:11:56.571Z,1019.48
2018-12-13T05:12:56.578Z,1019.47
2018-12-13T05:13:56.549Z,1019.46
2018-12-13T05:14:56.541Z,1019.46
2018-12-13T05:15:56.526Z,1019.43
2018-12-13T05:16:56.516Z,1019.43
2018-12-13T05:17:56.533Z,1019.42
2018-12-13T05:18:56.497Z,1019.41
2018-12-13T05:19:56.482Z,1019.42
2018-12-13T05:20:56.470Z,1019.40
2018-12-13T05:21:56.459Z,1019.38
2018-12-13T05:22:56.449Z,1019.35
2018-12-13T05:23:56.446Z,1019.38
2018-12-13T05:24:56.426Z,1019.36
2018-12-13T05:25:56.416Z,1019.38
2018-12-13T05:26:56.404Z,1019.35
2018-12-13T05:27:56.392Z,1019.35
2018-12-13T05:28:56.395Z,1019.35
2018-12-13T05:29:56.371Z,1019.35
2018-12-13T05:30:56.362Z,1019.37
2018-12-13T05:31:56.355Z,1019.43
2018-12-13T05:32:56.337Z,1019.44
2018-12-13T05:33:56.337Z,1019.39
2018-12-13T05:34:56.317Z,1019.41
2018-12-13T05:35:56.303Z,1019.40
2018-12-13T05:36:56.292Z,1019.42
2018-12-13T05:37:56.282Z,1019.42
2018-12-13T05:38:56.282Z,1019.45
2018-12-13T05:39:56.259Z,1019.43
2018-12-13T05:40:56.250Z,1019.42
2018-12-13T05:41:56.237Z,1019.37
2018-12-13T05:42:56.228Z,1019.38
2018-12-13T05:43:56.232Z,1019.36
2018-12-13T05:44:56.204Z,1019.34
2018-12-13T05:45:56.192Z,1019.40
2018-12-13T05:46:56.182Z,1019.38
2018-12-13T05:47:56.170Z,1019.44
2018-12-13T05:48:56.196Z,1019.37
2018-12-13T05:49:56.148Z,1019.36
2018-12-13T05:50:56.137Z,1019.29
2018-12-13T05:51:56.128Z,1019.28
2018-12-13T05:52:56.115Z,1019.32
2018-12-13T05:53:56.112Z,1019.29
2018-12-13T05:54:56.103Z,1019.24
2018-12-13T05:55:56.081Z,1019.28
2018-12-13T05:56:56.069Z,1019.29
2018-12-13T05:57:56.059Z,1019.27
2018-12-13T05:58:56.050Z,1019.24
2018-12-13T05:59:56.053Z,1019.16
2018-12-13T06:00:56.843Z,1019.19
2018-12-13T06:01:56.014Z,1019.17
2018-12-13T06:02:56.007Z,1019.17
2018-12-13T06:03:55.993Z,1019.20
2018-12-13T06:04:55.992Z,1019.17
2018-12-13T06:05:55.973Z,1019.17
2018-12-13T06:06:55.958Z,1019.18
2018-12-13T06:07:55.948Z,1019.19
2018-12-13T06:08:55.939Z,1019.24
2018-12-13T06:09:55.936Z,1019.21
2018-12-13T06:10:55.915Z,1019.26
2018-12-13T06:11:55.904Z,1019.24
2018-12-13T06:12:55.892Z,1019.23
2018-12-13T06:13:55.882Z,1019.28
2018-12-13T06:14:55.883Z,1019.29
2018-12-13T06:15:55.859Z,1019.28
2018-12-13T06:16:55.850Z,1019.29
2018-12-13T06:17:55.836Z,1019.30
2018-12-13T06:18:55.825Z,1019.31
2018-12-13T06:19:55.842Z,1019.28
2018-12-13T06:20:55.802Z,1019.30
2018-12-13T06:21:55.793Z,1019.33
2018-12-13T06:22:55.782Z,1019.31
2018-12-13T06:23:55.769Z,1019.29
2018-12-13T06:24:55.759Z,1019.26
2018-12-13T06:25:55.760Z,1019.32
2018-12-13T06:26:55.735Z,1019.32
2018-12-13T06:27:55.728Z,1019.30
2018-12-13T06:28:55.715Z,1019.33
2018-12-13T06:29:58.864Z,1019.32
2018-12-13T06:30:55.703Z,1019.34
2018-12-13T06:31:55.683Z,1019.36
2018-12-13T06:32:55.669Z,1019.34
2018-12-13T06:33:55.660Z,1019.35
2018-12-13T06:34:55.651Z,1019.35
2018-12-13T06:35:55.647Z,1019.33
2018-12-13T06:36:55.625Z,1019.35
2018-12-13T06:38:01.081Z,1019.33
2018-12-13T06:38:56.601Z,1019.31
2018-12-13T06:39:55.593Z,1019.29
2018-12-13T06:40:55.592Z,1019.25
2018-12-13T06:41:55.568Z,1019.31
2018-12-13T06:42:55.558Z,1019.31
2018-12-13T06:43:55.546Z,1019.32
2018-12-13T06:44:55.537Z,1019.30
2018-12-13T06:45:55.648Z,1019.31
2018-12-13T06:46:55.514Z,1019.35
2018-12-13T06:47:55.503Z,1019.31
2018-12-13T06:48:55.491Z,1019.39
2018-12-13T06:49:55.480Z,1019.41
2018-12-13T06:50:55.468Z,1019.42
2018-12-13T06:51:55.470Z,1019.43
2018-12-13T06:52:55.447Z,1019.38
2018-12-13T06:53:55.434Z,1019.44
2018-12-13T06:54:55.424Z,1019.41
2018-12-13T06:55:55.414Z,1019.41
2018-12-13T06:56:55.414Z,1019.41
2018-12-13T06:57:55.391Z,1019.39
2018-12-13T06:58:55.381Z,1019.43
2018-12-13T06:59:55.369Z,1019.43
2018-12-13T07:00:55.361Z,1019.42
2018-12-13T07:01:55.359Z,1019.42
2018-12-13T07:02:55.342Z,1019.43
2018-12-13T07:03:55.327Z,1019.40
2018-12-13T07:04:55.314Z,1019.40
2018-12-13T07:05:55.308Z,1019.43
2018-12-13T07:06:55.310Z,1019.42
2018-12-13T07:07:55.280Z,1019.40
2018-12-13T07:08:55.270Z,1019.43
2018-12-13T07:09:55.257Z,1019.43
2018-12-13T07:10:55.247Z,1019.40
2018-12-13T07:11:55.248Z,1019.43
2018-12-13T07:12:55.233Z,1019.38
2018-12-13T07:13:55.213Z,1019.42
2018-12-13T07:14:55.203Z,1019.40
2018-12-13T07:15:55.192Z,1019.39
2018-12-13T07:16:55.197Z,1019.38
2018-12-13T07:17:55.170Z,1019.37
2018-12-13T07:18:55.160Z,1019.37
2018-12-13T07:19:55.147Z,1019.36
2018-12-13T07:20:55.137Z,1019.30
2018-12-13T07:21:55.146Z,1019.36
2018-12-13T07:22:55.119Z,1019.34
2018-12-13T07:23:55.101Z,1019.34
2018-12-13T07:24:55.097Z,1019.34
2018-12-13T07:25:55.079Z,1019.32
2018-12-13T07:26:55.104Z,1019.31
2018-12-13T07:27:55.057Z,1019.36
2018-12-13T07:28:55.045Z,1019.37
2018-12-13T07:29:55.041Z,1019.39
2018-12-13T07:30:55.030Z,1019.35
2018-12-13T07:31:55.013Z,1019.31
2018-12-13T07:32:55.014Z,1019.32
2018-12-13T07:33:54.989Z,1019.35
2018-12-13T07:35:01.108Z,1019.34
2018-12-13T07:35:55.966Z,1019.40
2018-12-13T07:36:54.956Z,1019.45
2018-12-13T07:37:54.955Z,1019.45
2018-12-13T07:38:54.940Z,1019.47
2018-12-13T07:39:54.929Z,1019.57
2018-12-13T07:40:54.912Z,1019.58
2018-12-13T07:41:54.901Z,1019.65
2018-12-13T07:42:54.900Z,1019.67
2018-12-13T07:43:54.878Z,1019.65
2018-12-13T07:44:54.867Z,1019.64
2018-12-13T07:45:54.858Z,1019.59
2018-12-13T07:46:54.850Z,1019.63
2018-12-13T07:47:54.846Z,1019.58
2018-12-13T07:48:56.524Z,1019.60
2018-12-13T07:49:54.814Z,1019.59
2018-12-13T07:50:54.800Z,1019.61
2018-12-13T07:51:54.790Z,1019.56
2018-12-13T07:52:54.791Z,1019.61
2018-12-13T07:53:54.768Z,1019.57
2018-12-13T07:54:54.760Z,1019.57
2018-12-13T07:55:54.746Z,1019.60
2018-12-13T07:56:54.733Z,1019.60
2018-12-13T07:57:54.735Z,1019.60
2018-12-13T07:58:54.713Z,1019.55
2018-12-13T07:59:54.701Z,1019.54
2018-12-13T08:00:54.691Z,1019.58
2018-12-13T08:01:54.679Z,1019.61
2018-12-13T08:02:54.680Z,1019.59
2018-12-13T08:03:54.656Z,1019.61
2018-12-13T08:04:54.648Z,1019.59
2018-12-13T08:05:54.634Z,1019.58
2018-12-13T08:06:54.622Z,1019.58
2018-12-13T08:07:54.624Z,1019.62
2018-12-13T08:08:54.647Z,1019.62
2018-12-13T08:09:54.626Z,1019.61
2018-12-13T08:10:54.579Z,1019.62
2018-12-13T08:11:54.578Z,1019.58
2018-12-13T08:12:54.597Z,1019.61
2018-12-13T08:13:54.556Z,1019.63
2018-12-13T08:14:54.532Z,1019.60
2018-12-13T08:15:54.533Z,1019.58
2018-12-13T08:16:54.511Z,1019.55
2018-12-13T08:17:54.506Z,1019.58
2018-12-13T08:18:54.499Z,1019.55
2018-12-13T08:19:54.480Z,1019.56
2018-12-13T08:20:54.472Z,1019.54
2018-12-13T08:21:54.457Z,1019.57
2018-12-13T08:22:54.447Z,1019.56
2018-12-13T08:23:54.512Z,1019.51
2018-12-13T08:24:54.455Z,1019.53
2018-12-13T08:25:54.436Z,1019.49
2018-12-13T08:26:54.430Z,1019.51
2018-12-13T08:27:54.411Z,1019.51
2018-12-13T08:28:54.389Z,1019.48
2018-12-13T08:29:54.368Z,1019.48
2018-12-13T08:30:54.355Z,1019.46
2018-12-13T08:31:54.345Z,1019.46
2018-12-13T08:32:54.342Z,1019.47
2018-12-13T08:33:54.335Z,1019.46
2018-12-13T08:34:54.311Z,1019.48
2018-12-13T08:35:54.301Z,1019.47
2018-12-13T08:36:54.290Z,1019.48
2018-12-13T08:37:54.277Z,1019.48
2018-12-13T08:38:54.279Z,1019.47
2018-12-13T08:39:54.254Z,1019.49
2018-12-13T08:40:54.244Z,1019.46
2018-12-13T08:41:54.233Z,1019.45
2018-12-13T08:42:54.223Z,1019.46
2018-12-13T08:43:54.226Z,1019.45
2018-12-13T08:44:54.199Z,1019.44
2018-12-13T08:45:54.186Z,1019.45
2018-12-13T08:46:54.219Z,1019.47
2018-12-13T08:47:54.167Z,1019.46
2018-12-13T08:48:54.169Z,1019.44
2018-12-13T08:49:54.156Z,1019.47
2018-12-13T08:50:54.361Z,1019.47
2018-12-13T08:51:54.121Z,1019.47
2018-12-13T08:52:54.111Z,1019.43
2018-12-13T08:53:54.192Z,1019.43
2018-12-13T08:54:54.102Z,1019.41
2018-12-13T08:55:54.078Z,1019.46
2018-12-13T08:56:54.067Z,1019.41
2018-12-13T08:57:54.055Z,1019.40
2018-12-13T08:58:54.074Z,1019.42
2018-12-13T08:59:54.033Z,1019.43
2018-12-13T09:00:54.025Z,1019.44
2018-12-13T09:01:54.011Z,1019.43
2018-12-13T09:02:54.000Z,1019.43
2018-12-13T09:03:53.988Z,1019.44
2018-12-13T09:04:53.990Z,1019.45
2018-12-13T09:05:53.968Z,1019.45
2018-12-13T09:06:53.956Z,1019.48
2018-12-13T09:07:53.948Z,1019.52
2018-12-13T09:08:53.932Z,1019.53
2018-12-13T09:09:53.934Z,1019.51
2018-12-13T09:10:53.912Z,1019.55
2018-12-13T09:11:53.899Z,1019.55
2018-12-13T09:12:53.888Z,1019.54
2018-12-13T09:13:53.878Z,1019.50
2018-12-13T09:14:53.879Z,1019.51
2018-12-13T09:15:53.856Z,1019.51
2018-12-13T09:16:53.844Z,1019.50
2018-12-13T09:17:53.836Z,1019.51
2018-12-13T09:18:53.825Z,1019.47
2018-12-13T09:19:53.829Z,1019.41
2018-12-13T09:20:53.800Z,1019.43
2018-12-13T09:21:53.789Z,1019.39
2018-12-13T09:22:54.297Z,1019.41
2018-12-13T09:23:53.766Z,1019.39
2018-12-13T09:24:53.769Z,1019.43
2018-12-13T09:25:55.266Z,1019.38
2018-12-13T09:26:53.735Z,1019.37
2018-12-13T09:27:53.725Z,1019.45
2018-12-13T09:28:53.718Z,1019.45
2018-12-13T09:29:53.716Z,1019.48
2018-12-13T09:30:53.688Z,1019.47
2018-12-13T09:31:53.676Z,1019.47
2018-12-13T09:32:53.862Z,1019.45
2018-12-13T09:33:54.267Z,1019.44
2018-12-13T09:34:53.676Z,1019.46
2018-12-13T09:35:53.634Z,1019.43
2018-12-13T09:36:53.624Z,1019.40
2018-12-13T09:37:53.611Z,1019.41
2018-12-13T09:38:53.601Z,1019.40
2018-12-13T09:39:53.598Z,1019.35
2018-12-13T09:40:54.293Z,1019.35
2018-12-13T09:41:53.567Z,1019.34
2018-12-13T09:42:53.716Z,1019.33
2018-12-13T09:43:53.546Z,1019.37
2018-12-13T09:44:53.558Z,1019.35
2018-12-13T09:45:53.537Z,1019.38
2018-12-13T09:46:53.517Z,1019.37
2018-12-13T09:47:53.501Z,1019.36
2018-12-13T09:48:53.487Z,1019.31
2018-12-13T09:49:53.480Z,1019.35
2018-12-13T09:50:53.481Z,1019.33
2018-12-13T09:51:53.457Z,1019.36
2018-12-13T09:52:53.449Z,1019.35
2018-12-13T09:53:53.433Z,1019.31
2018-12-13T09:54:53.422Z,1019.36
2018-12-13T09:55:53.428Z,1019.32
2018-12-13T09:56:53.402Z,1019.33
2018-12-13T09:57:53.391Z,1019.33
2018-12-13T09:58:53.378Z,1019.30
2018-12-13T09:59:53.366Z,1019.30
2018-12-13T10:00:53.368Z,1019.28
2018-12-13T10:01:53.346Z,1019.31
2018-12-13T10:02:53.334Z,1019.25
2018-12-13T10:03:53.383Z,1019.26
2018-12-13T10:04:53.312Z,1019.26
2018-12-13T10:05:53.312Z,1019.24
2018-12-13T10:06:53.289Z,1019.22
2018-12-13T10:07:53.281Z,1019.25
2018-12-13T10:08:53.267Z,1019.17
2018-12-13T10:09:53.256Z,1019.20
2018-12-13T10:10:53.269Z,1019.19
2018-12-13T10:11:53.234Z,1019.18
2018-12-13T10:12:53.226Z,1019.22
2018-12-13T10:13:53.213Z,1019.20
2018-12-13T10:14:53.202Z,1019.21
2018-12-13T10:15:53.202Z,1019.18
2018-12-13T10:16:53.179Z,1019.21
2018-12-13T10:17:53.167Z,1019.17
2018-12-13T10:18:53.157Z,1019.17
2018-12-13T10:19:53.144Z,1019.19
2018-12-13T10:20:53.145Z,1019.14
2018-12-13T10:21:53.122Z,1019.15
2018-12-13T10:22:53.112Z,1019.09
2018-12-13T10:23:53.112Z,1019.12
2018-12-13T10:24:53.097Z,1019.08
2018-12-13T10:25:59.407Z,1019.09
2018-12-13T10:26:54.065Z,1019.09
2018-12-13T10:27:53.054Z,1019.09
2018-12-13T10:28:53.044Z,1019.13
2018-12-13T10:29:53.031Z,1019.08
2018-12-13T10:31:00.087Z,1019.08
2018-12-13T10:32:00.030Z,1019.11
2018-12-13T10:33:00.019Z,1019.08
2018-12-13T10:34:00.010Z,1019.10
2018-12-13T10:35:00.002Z,1019.09
2018-12-13T10:35:59.992Z,1019.09
2018-12-13T10:36:59.989Z,1019.07
2018-12-13T10:37:59.974Z,1019.05
2018-12-13T10:38:59.954Z,1019.00
2018-12-13T10:39:52.922Z,1019.02
2018-12-13T10:40:59.936Z,1018.98
2018-12-13T10:41:59.937Z,1018.99
2018-12-13T10:42:59.914Z,1019.00
2018-12-13T10:43:59.909Z,1018.98
2018-12-13T10:44:59.892Z,1019.00
2018-12-13T10:45:59.879Z,1019.01
2018-12-13T10:46:54.121Z,1018.96
2018-12-13T10:47:59.862Z,1019.03
2018-12-13T10:48:59.843Z,1019.03
2018-12-13T10:49:52.812Z,1018.97
2018-12-13T10:50:52.799Z,1018.93
2018-12-13T10:51:52.799Z,1018.98
2018-12-13T10:53:00.793Z,1018.96
2018-12-13T10:53:59.789Z,1018.91
2018-12-13T10:54:59.781Z,1018.91
2018-12-13T10:55:59.765Z,1018.93
2018-12-13T10:56:59.772Z,1018.92
2018-12-13T10:58:00.737Z,1018.86
2018-12-13T10:58:59.738Z,1018.85
2018-12-13T10:59:59.727Z,1018.90
2018-12-13T11:00:59.720Z,1018.86
2018-12-13T11:01:59.740Z,1018.88
2018-12-13T11:02:52.665Z,1018.86
2018-12-13T11:03:59.683Z,1018.88
2018-12-13T11:04:59.669Z,1018.88
2018-12-13T11:05:52.634Z,1018.90
2018-12-13T11:06:52.620Z,1018.85
2018-12-13T11:07:52.623Z,1018.86
2018-12-13T11:08:52.599Z,1018.85
2018-12-13T11:09:59.611Z,1018.89
2018-12-13T11:10:52.576Z,1018.90
2018-12-13T11:11:59.591Z,1018.91
2018-12-13T11:12:52.569Z,1018.87
2018-12-13T11:13:52.573Z,1018.85
2018-12-13T11:14:52.533Z,1018.84
2018-12-13T11:15:52.521Z,1018.85
2018-12-13T11:16:52.510Z,1018.91
2018-12-13T11:17:52.508Z,1018.87
2018-12-13T11:18:52.488Z,1018.85
2018-12-13T11:19:52.476Z,1018.85
2018-12-13T11:20:52.477Z,1018.84
2018-12-13T11:21:52.455Z,1018.84
2018-12-13T11:22:52.453Z,1018.82
2018-12-13T11:23:59.613Z,1018.84
2018-12-13T11:24:59.442Z,1018.81
2018-12-13T11:25:52.411Z,1018.82
2018-12-13T11:26:59.429Z,1018.82
2018-12-13T11:27:52.431Z,1018.85
2018-12-13T11:28:52.375Z,1018.71
2018-12-13T11:29:59.388Z,1018.75
2018-12-13T11:30:52.356Z,1018.76
2018-12-13T11:31:59.676Z,1018.80
2018-12-13T11:32:52.338Z,1018.79
2018-12-13T11:33:52.334Z,1018.78
2018-12-13T11:34:59.333Z,1018.82
2018-12-13T11:35:52.299Z,1018.84
2018-12-13T11:36:52.287Z,1018.83
2018-12-13T11:37:59.329Z,1018.81
2018-12-13T11:38:52.286Z,1018.81
2018-12-13T11:39:52.254Z,1018.83
2018-12-13T11:40:52.242Z,1018.84
2018-12-13T11:41:52.231Z,1018.83
2018-12-13T11:42:52.220Z,1018.83
2018-12-13T11:43:52.220Z,1018.82
2018-12-13T11:44:52.197Z,1018.83
2018-12-13T11:45:52.186Z,1018.80
2018-12-13T11:46:52.175Z,1018.78
2018-12-13T11:47:52.164Z,1018.82
2018-12-13T11:48:52.164Z,1018.79
2018-12-13T11:49:52.142Z,1018.80
2018-12-13T11:50:52.130Z,1018.80
2018-12-13T11:51:52.120Z,1018.84
2018-12-13T11:52:52.112Z,1018.82
2018-12-13T11:53:52.115Z,1018.79
2018-12-13T11:54:52.091Z,1018.82
2018-12-13T11:55:52.078Z,1018.82
2018-12-13T11:56:52.065Z,1018.81
2018-12-13T11:57:52.053Z,1018.76
2018-12-13T11:58:52.059Z,1018.80
2018-12-13T11:59:52.027Z,1018.81
2018-12-13T12:00:52.017Z,1018.79
2018-12-13T12:01:52.007Z,1018.80
2018-12-13T12:02:51.997Z,1018.75
2018-12-13T12:03:51.998Z,1018.77
2018-12-13T12:04:51.975Z,1018.77